sensor_id;sensor_type;location;lat;lon;timestamp;P1;durP1;ratioP1;P2;durP2;ratioP2
51006;SDS011;37034;47.886;-3.904;2022-12-18T00:00:45;36.15;;;20.08;;
51006;SDS011;37034;47.886;-3.904;2022-12-18T00:03:12;34.85;;;19.13;;
51006;SDS011;37034;47.886;-3.904;2022-12-18T00:05:47;36.95;;;20.27;;
51006;SDS011;37034;47.886;-3.904;2022-12-18T00:08:16;34.00;;;19.00;;
51006;SDS011;37034;47.886;-3.904;2022-12-18T00:10:43;36.28;;;18.70;;
51006;SDS011;37034;47.886;-3.904;2022-12-18T00:13:09;32.97;;;18.45;;
51006;SDS011;37034;47.886;-3.904;2022-12-18T00:15:36;43.28;;;20.30;;
51006;SDS011;37034;47.886;-3.904;2022-12-18T00:18:03;40.97;;;19.77;;
51006;SDS011;37034;47.886;-3.904;2022-12-18T00:20:29;34.42;;;18.20;;
51006;SDS011;37034;47.886;-3.904;2022-12-18T00:22:55;38.60;;;19.52;;
51006;SDS011;37034;47.886;-3.904;2022-12-18T00:25:21;24.23;;;13.93;;
51006;SDS011;37034;47.886;-3.904;2022-12-18T00:27:47;33.58;;;18.05;;
51006;SDS011;37034;47.886;-3.904;2022-12-18T00:30:13;36.97;;;19.83;;
51006;SDS011;37034;47.886;-3.904;2022-12-18T00:32:39;36.43;;;18.97;;
51006;SDS011;37034;47.886;-3.904;2022-12-18T00:35:06;33.57;;;19.93;;
51006;SDS011;37034;47.886;-3.904;2022-12-18T00:40:01;34.65;;;18.75;;
51006;SDS011;37034;47.886;-3.904;2022-12-18T00:45:19;36.92;;;20.23;;
51006;SDS011;37034;47.886;-3.904;2022-12-18T00:47:44;38.00;;;19.03;;
51006;SDS011;37034;47.886;-3.904;2022-12-18T00:50:10;37.23;;;19.83;;
51006;SDS011;37034;47.886;-3.904;2022-12-18T00:52:36;27.03;;;14.50;;
51006;SDS011;37034;47.886;-3.904;2022-12-18T00:55:02;43.17;;;20.90;;
51006;SDS011;37034;47.886;-3.904;2022-12-18T00:57:27;38.23;;;19.23;;
51006;SDS011;37034;47.886;-3.904;2022-12-18T00:59:53;35.10;;;18.00;;
51006;SDS011;37034;47.886;-3.904;2022-12-18T01:02:19;37.07;;;20.43;;
51006;SDS011;37034;47.886;-3.904;2022-12-18T01:04:45;32.97;;;18.80;;
51006;SDS011;37034;47.886;-3.904;2022-12-18T01:07:10;40.67;;;19.50;;
51006;SDS011;37034;47.886;-3.904;2022-12-18T01:09:36;33.67;;;15.17;;
51006;SDS011;37034;47.886;-3.904;2022-12-18T01:12:02;37.27;;;19.83;;
51006;SDS011;37034;47.886;-3.904;2022-12-18T01:14:28;26.08;;;14.48;;
51006;SDS011;37034;47.886;-3.904;2022-12-18T01:16:53;34.33;;;19.60;;
51006;SDS011;37034;47.886;-3.904;2022-12-18T01:19:19;39.33;;;19.83;;
51006;SDS011;37034;47.886;-3.904;2022-12-18T01:21:45;37.83;;;19.47;;
51006;SDS011;37034;47.886;-3.904;2022-12-18T01:24:11;43.70;;;19.30;;
51006;SDS011;37034;47.886;-3.904;2022-12-18T01:26:37;43.88;;;20.38;;
51006;SDS011;37034;47.886;-3.904;2022-12-18T01:29:02;38.03;;;20.70;;
51006;SDS011;37034;47.886;-3.904;2022-12-18T01:31:30;41.03;;;19.93;;
51006;SDS011;37034;47.886;-3.904;2022-12-18T01:33:57;35.60;;;19.50;;
51006;SDS011;37034;47.886;-3.904;2022-12-18T01:36:27;37.17;;;20.45;;
51006;SDS011;37034;47.886;-3.904;2022-12-18T01:38:54;36.28;;;19.80;;
51006;SDS011;37034;47.886;-3.904;2022-12-18T01:41:22;44.25;;;22.63;;
51006;SDS011;37034;47.886;-3.904;2022-12-18T01:43:53;36.65;;;19.38;;
51006;SDS011;37034;47.886;-3.904;2022-12-18T01:46:25;40.40;;;20.60;;
51006;SDS011;37034;47.886;-3.904;2022-12-18T01:48:53;36.10;;;18.60;;
51006;SDS011;37034;47.886;-3.904;2022-12-18T01:51:22;32.92;;;18.00;;
51006;SDS011;37034;47.886;-3.904;2022-12-18T01:53:48;41.90;;;20.38;;
51006;SDS011;37034;47.886;-3.904;2022-12-18T01:56:15;38.05;;;19.13;;
51006;SDS011;37034;47.886;-3.904;2022-12-18T01:58:56;36.25;;;20.45;;
51006;SDS011;37034;47.886;-3.904;2022-12-18T02:01:26;39.08;;;19.58;;
51006;SDS011;37034;47.886;-3.904;2022-12-18T02:03:54;35.53;;;20.15;;
51006;SDS011;37034;47.886;-3.904;2022-12-18T02:06:26;35.70;;;18.83;;
51006;SDS011;37034;47.886;-3.904;2022-12-18T02:14:17;38.15;;;20.98;;
51006;SDS011;37034;47.886;-3.904;2022-12-18T02:16:52;35.13;;;19.27;;
51006;SDS011;37034;47.886;-3.904;2022-12-18T02:24:46;37.63;;;19.63;;
51006;SDS011;37034;47.886;-3.904;2022-12-18T02:27:20;37.08;;;19.08;;
51006;SDS011;37034;47.886;-3.904;2022-12-18T02:29:50;38.33;;;20.87;;
51006;SDS011;37034;47.886;-3.904;2022-12-18T02:32:20;32.13;;;18.92;;
51006;SDS011;37034;47.886;-3.904;2022-12-18T02:34:50;44.67;;;22.38;;
51006;SDS011;37034;47.886;-3.904;2022-12-18T02:37:18;37.20;;;20.23;;
51006;SDS011;37034;47.886;-3.904;2022-12-18T02:39:46;39.35;;;20.90;;
51006;SDS011;37034;47.886;-3.904;2022-12-18T02:42:13;39.05;;;19.88;;
51006;SDS011;37034;47.886;-3.904;2022-12-18T02:44:45;38.40;;;20.40;;
51006;SDS011;37034;47.886;-3.904;2022-12-18T02:47:16;40.67;;;19.75;;
51006;SDS011;37034;47.886;-3.904;2022-12-18T02:57:40;36.42;;;20.17;;
51006;SDS011;37034;47.886;-3.904;2022-12-18T03:05:50;38.33;;;20.35;;
51006;SDS011;37034;47.886;-3.904;2022-12-18T03:08:20;34.20;;;19.70;;
51006;SDS011;37034;47.886;-3.904;2022-12-18T03:10:50;34.63;;;18.25;;
51006;SDS011;37034;47.886;-3.904;2022-12-18T03:13:20;39.22;;;21.55;;
51006;SDS011;37034;47.886;-3.904;2022-12-18T03:15:51;42.15;;;20.42;;
51006;SDS011;37034;47.886;-3.904;2022-12-18T03:18:29;34.22;;;19.00;;
51006;SDS011;37034;47.886;-3.904;2022-12-18T03:20:58;34.42;;;19.92;;
51006;SDS011;37034;47.886;-3.904;2022-12-18T03:23:28;36.60;;;19.60;;
51006;SDS011;37034;47.886;-3.904;2022-12-18T03:26:02;30.75;;;18.25;;
51006;SDS011;37034;47.886;-3.904;2022-12-18T03:28:31;36.53;;;19.10;;
51006;SDS011;37034;47.886;-3.904;2022-12-18T03:31:00;40.17;;;19.27;;
51006;SDS011;37034;47.886;-3.904;2022-12-18T03:33:40;34.42;;;18.80;;
51006;SDS011;37034;47.886;-3.904;2022-12-18T03:36:12;35.33;;;20.08;;
51006;SDS011;37034;47.886;-3.904;2022-12-18T03:38:37;36.07;;;18.13;;
51006;SDS011;37034;47.886;-3.904;2022-12-18T03:43:39;32.08;;;18.23;;
51006;SDS011;37034;47.886;-3.904;2022-12-18T03:46:33;32.10;;;17.48;;
51006;SDS011;37034;47.886;-3.904;2022-12-18T03:49:08;37.88;;;19.92;;
51006;SDS011;37034;47.886;-3.904;2022-12-18T03:54:16;34.40;;;19.30;;
51006;SDS011;37034;47.886;-3.904;2022-12-18T03:56:47;34.85;;;20.10;;
51006;SDS011;37034;47.886;-3.904;2022-12-18T03:59:19;39.13;;;18.55;;
51006;SDS011;37034;47.886;-3.904;2022-12-18T04:01:47;36.22;;;18.83;;
51006;SDS011;37034;47.886;-3.904;2022-12-18T04:04:16;42.90;;;21.98;;
51006;SDS011;37034;47.886;-3.904;2022-12-18T04:06:43;36.08;;;19.42;;
51006;SDS011;37034;47.886;-3.904;2022-12-18T04:09:12;36.60;;;20.02;;
51006;SDS011;37034;47.886;-3.904;2022-12-18T04:11:39;35.00;;;19.23;;
51006;SDS011;37034;47.886;-3.904;2022-12-18T04:14:06;36.20;;;20.55;;
51006;SDS011;37034;47.886;-3.904;2022-12-18T04:16:31;36.03;;;19.20;;
51006;SDS011;37034;47.886;-3.904;2022-12-18T04:18:57;32.07;;;18.77;;
51006;SDS011;37034;47.886;-3.904;2022-12-18T04:21:23;38.00;;;20.43;;
51006;SDS011;37034;47.886;-3.904;2022-12-18T04:23:49;31.50;;;15.80;;
51006;SDS011;37034;47.886;-3.904;2022-12-18T04:26:15;39.63;;;20.05;;
51006;SDS011;37034;47.886;-3.904;2022-12-18T04:28:40;38.37;;;19.93;;
51006;SDS011;37034;47.886;-3.904;2022-12-18T04:31:06;37.33;;;20.53;;
51006;SDS011;37034;47.886;-3.904;2022-12-18T04:33:32;39.70;;;22.53;;
51006;SDS011;37034;47.886;-3.904;2022-12-18T04:35:58;58.35;;;22.40;;
51006;SDS011;37034;47.886;-3.904;2022-12-18T04:38:24;37.03;;;20.43;;
51006;SDS011;37034;47.886;-3.904;2022-12-18T04:40:49;38.00;;;21.90;;
51006;SDS011;37034;47.886;-3.904;2022-12-18T04:43:15;39.73;;;22.40;;
51006;SDS011;37034;47.886;-3.904;2022-12-18T04:45:41;35.10;;;20.20;;
51006;SDS011;37034;47.886;-3.904;2022-12-18T04:48:07;34.67;;;19.67;;
51006;SDS011;37034;47.886;-3.904;2022-12-18T04:50:32;38.43;;;21.23;;
51006;SDS011;37034;47.886;-3.904;2022-12-18T04:52:58;38.20;;;20.57;;
51006;SDS011;37034;47.886;-3.904;2022-12-18T04:55:24;34.27;;;20.97;;
51006;SDS011;37034;47.886;-3.904;2022-12-18T04:57:50;37.87;;;20.73;;
51006;SDS011;37034;47.886;-3.904;2022-12-18T05:00:16;38.85;;;21.50;;
51006;SDS011;37034;47.886;-3.904;2022-12-18T05:02:41;38.08;;;20.92;;
51006;SDS011;37034;47.886;-3.904;2022-12-18T05:05:07;36.37;;;20.57;;
51006;SDS011;37034;47.886;-3.904;2022-12-18T05:07:33;43.85;;;20.45;;
51006;SDS011;37034;47.886;-3.904;2022-12-18T05:09:59;38.83;;;20.63;;
51006;SDS011;37034;47.886;-3.904;2022-12-18T05:12:25;42.57;;;22.37;;
51006;SDS011;37034;47.886;-3.904;2022-12-18T05:14:50;36.13;;;20.08;;
51006;SDS011;37034;47.886;-3.904;2022-12-18T05:17:16;38.58;;;22.30;;
51006;SDS011;37034;47.886;-3.904;2022-12-18T05:19:42;37.30;;;21.03;;
51006;SDS011;37034;47.886;-3.904;2022-12-18T05:22:08;37.65;;;21.33;;
51006;SDS011;37034;47.886;-3.904;2022-12-18T05:24:34;41.83;;;21.65;;
51006;SDS011;37034;47.886;-3.904;2022-12-18T05:27:00;39.40;;;21.10;;
51006;SDS011;37034;47.886;-3.904;2022-12-18T05:29:27;46.75;;;24.08;;
51006;SDS011;37034;47.886;-3.904;2022-12-18T05:31:54;41.67;;;21.33;;
51006;SDS011;37034;47.886;-3.904;2022-12-18T05:34:20;39.83;;;22.38;;
51006;SDS011;37034;47.886;-3.904;2022-12-18T05:36:46;37.67;;;20.73;;
51006;SDS011;37034;47.886;-3.904;2022-12-18T05:39:13;40.63;;;20.13;;
51006;SDS011;37034;47.886;-3.904;2022-12-18T05:41:39;36.40;;;21.00;;
51006;SDS011;37034;47.886;-3.904;2022-12-18T05:44:05;37.67;;;21.07;;
51006;SDS011;37034;47.886;-3.904;2022-12-18T05:46:31;32.60;;;18.93;;
51006;SDS011;37034;47.886;-3.904;2022-12-18T05:48:59;41.65;;;23.75;;
51006;SDS011;37034;47.886;-3.904;2022-12-18T05:51:29;39.65;;;20.73;;
51006;SDS011;37034;47.886;-3.904;2022-12-18T05:53:57;35.05;;;20.02;;
51006;SDS011;37034;47.886;-3.904;2022-12-18T05:56:23;40.53;;;21.20;;
51006;SDS011;37034;47.886;-3.904;2022-12-18T05:58:52;37.60;;;19.98;;
51006;SDS011;37034;47.886;-3.904;2022-12-18T06:01:20;30.85;;;18.67;;
51006;SDS011;37034;47.886;-3.904;2022-12-18T06:03:50;36.75;;;19.80;;
51006;SDS011;37034;47.886;-3.904;2022-12-18T06:06:20;33.95;;;18.92;;
51006;SDS011;37034;47.886;-3.904;2022-12-18T06:08:48;31.52;;;18.60;;
51006;SDS011;37034;47.886;-3.904;2022-12-18T06:11:19;31.30;;;19.85;;
51006;SDS011;37034;47.886;-3.904;2022-12-18T06:13:49;26.00;;;16.58;;
51006;SDS011;37034;47.886;-3.904;2022-12-18T06:16:26;28.42;;;17.65;;
51006;SDS011;37034;47.886;-3.904;2022-12-18T06:19:03;32.70;;;20.58;;
51006;SDS011;37034;47.886;-3.904;2022-12-18T06:21:30;32.20;;;19.70;;
51006;SDS011;37034;47.886;-3.904;2022-12-18T06:23:57;31.90;;;19.92;;
51006;SDS011;37034;47.886;-3.904;2022-12-18T06:26:23;34.70;;;20.23;;
51006;SDS011;37034;47.886;-3.904;2022-12-18T06:28:49;30.90;;;19.48;;
51006;SDS011;37034;47.886;-3.904;2022-12-18T06:31:16;34.28;;;17.95;;
51006;SDS011;37034;47.886;-3.904;2022-12-18T06:33:42;22.23;;;14.45;;
51006;SDS011;37034;47.886;-3.904;2022-12-18T06:36:11;25.50;;;17.47;;
51006;SDS011;37034;47.886;-3.904;2022-12-18T06:38:54;26.05;;;15.45;;
51006;SDS011;37034;47.886;-3.904;2022-12-18T06:41:21;29.40;;;17.45;;
51006;SDS011;37034;47.886;-3.904;2022-12-18T06:43:47;26.55;;;16.55;;
51006;SDS011;37034;47.886;-3.904;2022-12-18T06:46:12;31.23;;;18.07;;
51006;SDS011;37034;47.886;-3.904;2022-12-18T06:48:38;27.88;;;16.77;;
51006;SDS011;37034;47.886;-3.904;2022-12-18T06:51:05;26.08;;;16.35;;
51006;SDS011;37034;47.886;-3.904;2022-12-18T06:53:31;30.45;;;16.98;;
51006;SDS011;37034;47.886;-3.904;2022-12-18T06:56:04;25.45;;;16.73;;
51006;SDS011;37034;47.886;-3.904;2022-12-18T06:58:32;26.13;;;17.20;;
51006;SDS011;37034;47.886;-3.904;2022-12-18T07:01:01;30.50;;;15.70;;
51006;SDS011;37034;47.886;-3.904;2022-12-18T07:03:28;30.15;;;19.00;;
51006;SDS011;37034;47.886;-3.904;2022-12-18T07:05:54;26.57;;;16.00;;
51006;SDS011;37034;47.886;-3.904;2022-12-18T07:08:19;29.40;;;17.00;;
51006;SDS011;37034;47.886;-3.904;2022-12-18T07:10:46;29.33;;;17.80;;
51006;SDS011;37034;47.886;-3.904;2022-12-18T07:13:14;28.42;;;17.08;;
51006;SDS011;37034;47.886;-3.904;2022-12-18T07:15:40;24.80;;;16.25;;
51006;SDS011;37034;47.886;-3.904;2022-12-18T07:18:06;26.77;;;16.33;;
51006;SDS011;37034;47.886;-3.904;2022-12-18T07:20:32;27.47;;;15.33;;
51006;SDS011;37034;47.886;-3.904;2022-12-18T07:22:57;23.80;;;15.33;;
51006;SDS011;37034;47.886;-3.904;2022-12-18T07:25:25;26.27;;;16.90;;
51006;SDS011;37034;47.886;-3.904;2022-12-18T07:27:51;26.90;;;16.05;;
51006;SDS011;37034;47.886;-3.904;2022-12-18T07:30:17;18.23;;;11.90;;
51006;SDS011;37034;47.886;-3.904;2022-12-18T07:32:42;31.97;;;16.83;;
51006;SDS011;37034;47.886;-3.904;2022-12-18T07:35:08;25.83;;;14.97;;
51006;SDS011;37034;47.886;-3.904;2022-12-18T07:37:34;27.63;;;15.07;;
51006;SDS011;37034;47.886;-3.904;2022-12-18T07:40:00;19.50;;;11.23;;
51006;SDS011;37034;47.886;-3.904;2022-12-18T07:42:26;24.48;;;13.48;;
51006;SDS011;37034;47.886;-3.904;2022-12-18T07:44:59;31.38;;;13.70;;
51006;SDS011;37034;47.886;-3.904;2022-12-18T07:47:27;25.70;;;11.05;;
51006;SDS011;37034;47.886;-3.904;2022-12-18T07:50:03;26.50;;;7.57;;
51006;SDS011;37034;47.886;-3.904;2022-12-18T07:52:30;27.55;;;6.22;;
51006;SDS011;37034;47.886;-3.904;2022-12-18T07:54:57;23.65;;;4.53;;
51006;SDS011;37034;47.886;-3.904;2022-12-18T07:57:26;18.13;;;3.73;;
51006;SDS011;37034;47.886;-3.904;2022-12-18T07:59:55;27.00;;;5.18;;
51006;SDS011;37034;47.886;-3.904;2022-12-18T08:02:21;26.75;;;5.43;;
51006;SDS011;37034;47.886;-3.904;2022-12-18T08:04:48;38.00;;;6.15;;
51006;SDS011;37034;47.886;-3.904;2022-12-18T08:07:18;33.05;;;5.55;;
51006;SDS011;37034;47.886;-3.904;2022-12-18T08:09:54;37.08;;;7.10;;
51006;SDS011;37034;47.886;-3.904;2022-12-18T08:12:20;41.53;;;6.50;;
51006;SDS011;37034;47.886;-3.904;2022-12-18T08:17:12;30.20;;;5.72;;
51006;SDS011;37034;47.886;-3.904;2022-12-18T08:19:38;35.57;;;6.97;;
51006;SDS011;37034;47.886;-3.904;2022-12-18T08:22:04;44.15;;;7.00;;
51006;SDS011;37034;47.886;-3.904;2022-12-18T08:24:31;37.38;;;7.20;;
51006;SDS011;37034;47.886;-3.904;2022-12-18T08:26:57;41.50;;;7.07;;
51006;SDS011;37034;47.886;-3.904;2022-12-18T08:29:25;36.53;;;7.78;;
51006;SDS011;37034;47.886;-3.904;2022-12-18T08:31:51;41.57;;;6.90;;
51006;SDS011;37034;47.886;-3.904;2022-12-18T08:34:17;30.37;;;5.80;;
51006;SDS011;37034;47.886;-3.904;2022-12-18T08:36:43;29.00;;;6.63;;
51006;SDS011;37034;47.886;-3.904;2022-12-18T08:39:08;41.40;;;7.40;;
51006;SDS011;37034;47.886;-3.904;2022-12-18T08:41:34;31.17;;;6.17;;
51006;SDS011;37034;47.886;-3.904;2022-12-18T08:44:00;25.63;;;5.70;;
51006;SDS011;37034;47.886;-3.904;2022-12-18T08:46:44;31.15;;;6.25;;
51006;SDS011;37034;47.886;-3.904;2022-12-18T08:49:11;33.72;;;5.57;;
51006;SDS011;37034;47.886;-3.904;2022-12-18T08:51:37;27.10;;;5.13;;
51006;SDS011;37034;47.886;-3.904;2022-12-18T08:54:04;28.77;;;5.63;;
51006;SDS011;37034;47.886;-3.904;2022-12-18T08:56:31;21.30;;;5.03;;
51006;SDS011;37034;47.886;-3.904;2022-12-18T08:58:58;28.10;;;4.88;;
51006;SDS011;37034;47.886;-3.904;2022-12-18T09:01:23;28.83;;;5.03;;
51006;SDS011;37034;47.886;-3.904;2022-12-18T09:03:49;24.80;;;4.85;;
51006;SDS011;37034;47.886;-3.904;2022-12-18T09:06:16;29.15;;;5.13;;
51006;SDS011;37034;47.886;-3.904;2022-12-18T09:08:44;33.90;;;5.05;;
51006;SDS011;37034;47.886;-3.904;2022-12-18T09:11:23;27.17;;;4.10;;
51006;SDS011;37034;47.886;-3.904;2022-12-18T09:13:51;31.38;;;4.55;;
51006;SDS011;37034;47.886;-3.904;2022-12-18T09:16:17;32.50;;;5.40;;
51006;SDS011;37034;47.886;-3.904;2022-12-18T09:18:44;30.45;;;4.80;;
51006;SDS011;37034;47.886;-3.904;2022-12-18T09:21:12;28.25;;;4.65;;
51006;SDS011;37034;47.886;-3.904;2022-12-18T09:23:49;31.70;;;5.30;;
51006;SDS011;37034;47.886;-3.904;2022-12-18T09:26:15;32.70;;;4.80;;
51006;SDS011;37034;47.886;-3.904;2022-12-18T09:28:41;27.67;;;4.17;;
51006;SDS011;37034;47.886;-3.904;2022-12-18T09:31:12;33.10;;;4.78;;
51006;SDS011;37034;47.886;-3.904;2022-12-18T09:33:39;26.45;;;4.25;;
51006;SDS011;37034;47.886;-3.904;2022-12-18T09:36:06;30.88;;;5.57;;
51006;SDS011;37034;47.886;-3.904;2022-12-18T09:38:34;27.20;;;4.80;;
51006;SDS011;37034;47.886;-3.904;2022-12-18T09:41:03;39.20;;;5.82;;
51006;SDS011;37034;47.886;-3.904;2022-12-18T09:43:47;25.27;;;5.22;;
51006;SDS011;37034;47.886;-3.904;2022-12-18T09:46:17;39.88;;;6.78;;
51006;SDS011;37034;47.886;-3.904;2022-12-18T09:48:51;44.85;;;7.75;;
51006;SDS011;37034;47.886;-3.904;2022-12-18T09:51:20;31.95;;;6.15;;
51006;SDS011;37034;47.886;-3.904;2022-12-18T09:53:58;37.83;;;6.90;;
51006;SDS011;37034;47.886;-3.904;2022-12-18T09:56:31;48.08;;;7.18;;
51006;SDS011;37034;47.886;-3.904;2022-12-18T09:59:03;39.00;;;6.93;;
51006;SDS011;37034;47.886;-3.904;2022-12-18T10:01:30;34.83;;;6.47;;
51006;SDS011;37034;47.886;-3.904;2022-12-18T10:03:57;45.08;;;6.50;;
51006;SDS011;37034;47.886;-3.904;2022-12-18T10:12:18;43.08;;;6.90;;
51006;SDS011;37034;47.886;-3.904;2022-12-18T10:17:30;44.13;;;6.60;;
51006;SDS011;37034;47.886;-3.904;2022-12-18T10:20:37;38.30;;;6.95;;
51006;SDS011;37034;47.886;-3.904;2022-12-18T10:26:06;35.42;;;6.03;;
51006;SDS011;37034;47.886;-3.904;2022-12-18T10:28:35;46.78;;;6.47;;
51006;SDS011;37034;47.886;-3.904;2022-12-18T10:31:07;37.70;;;5.95;;
51006;SDS011;37034;47.886;-3.904;2022-12-18T10:33:41;61.70;;;6.57;;
51006;SDS011;37034;47.886;-3.904;2022-12-18T10:36:06;34.63;;;6.23;;
51006;SDS011;37034;47.886;-3.904;2022-12-18T10:38:32;46.28;;;5.97;;
51006;SDS011;37034;47.886;-3.904;2022-12-18T10:41:05;29.33;;;4.40;;
51006;SDS011;37034;47.886;-3.904;2022-12-18T10:43:45;36.25;;;5.28;;
51006;SDS011;37034;47.886;-3.904;2022-12-18T10:46:15;45.30;;;5.33;;
51006;SDS011;37034;47.886;-3.904;2022-12-18T10:51:46;46.53;;;6.30;;
51006;SDS011;37034;47.886;-3.904;2022-12-18T10:54:05;41.55;;;6.28;;
51006;SDS011;37034;47.886;-3.904;2022-12-18T10:56:39;44.63;;;4.95;;
51006;SDS011;37034;47.886;-3.904;2022-12-18T10:59:06;27.75;;;5.30;;
51006;SDS011;37034;47.886;-3.904;2022-12-18T11:01:45;42.15;;;5.55;;
51006;SDS011;37034;47.886;-3.904;2022-12-18T11:04:21;38.70;;;5.78;;
51006;SDS011;37034;47.886;-3.904;2022-12-18T11:07:22;47.15;;;5.78;;
51006;SDS011;37034;47.886;-3.904;2022-12-18T11:09:41;48.00;;;6.30;;
51006;SDS011;37034;47.886;-3.904;2022-12-18T11:14:42;44.78;;;6.47;;
51006;SDS011;37034;47.886;-3.904;2022-12-18T11:19:53;57.90;;;6.60;;
51006;SDS011;37034;47.886;-3.904;2022-12-18T11:22:31;48.88;;;6.60;;
51006;SDS011;37034;47.886;-3.904;2022-12-18T11:25:19;59.20;;;6.55;;
51006;SDS011;37034;47.886;-3.904;2022-12-18T11:27:51;45.50;;;6.40;;
51006;SDS011;37034;47.886;-3.904;2022-12-18T11:30:24;58.90;;;7.15;;
51006;SDS011;37034;47.886;-3.904;2022-12-18T11:32:58;60.58;;;8.45;;
51006;SDS011;37034;47.886;-3.904;2022-12-18T11:35:47;49.72;;;6.40;;
51006;SDS011;37034;47.886;-3.904;2022-12-18T11:38:21;56.92;;;5.97;;
51006;SDS011;37034;47.886;-3.904;2022-12-18T11:43:27;56.95;;;7.13;;
51006;SDS011;37034;47.886;-3.904;2022-12-18T11:46:06;63.55;;;8.55;;
51006;SDS011;37034;47.886;-3.904;2022-12-18T11:48:43;56.28;;;6.65;;
51006;SDS011;37034;47.886;-3.904;2022-12-18T11:51:26;59.58;;;8.20;;
51006;SDS011;37034;47.886;-3.904;2022-12-18T11:53:58;59.05;;;6.03;;
51006;SDS011;37034;47.886;-3.904;2022-12-18T11:56:39;46.85;;;6.28;;
51006;SDS011;37034;47.886;-3.904;2022-12-18T12:07:47;50.35;;;5.55;;
51006;SDS011;37034;47.886;-3.904;2022-12-18T12:21:42;32.42;;;5.15;;
51006;SDS011;37034;47.886;-3.904;2022-12-18T12:27:05;48.40;;;5.65;;
51006;SDS011;37034;47.886;-3.904;2022-12-18T12:29:46;45.38;;;5.32;;
51006;SDS011;37034;47.886;-3.904;2022-12-18T12:35:42;46.28;;;6.00;;
51006;SDS011;37034;47.886;-3.904;2022-12-18T12:38:24;44.60;;;6.10;;
51006;SDS011;37034;47.886;-3.904;2022-12-18T12:40:58;40.38;;;6.88;;
51006;SDS011;37034;47.886;-3.904;2022-12-18T12:45:59;51.53;;;6.03;;
51006;SDS011;37034;47.886;-3.904;2022-12-18T12:48:44;50.40;;;5.97;;
51006;SDS011;37034;47.886;-3.904;2022-12-18T12:51:24;39.55;;;6.28;;
51006;SDS011;37034;47.886;-3.904;2022-12-18T12:53:56;43.45;;;7.10;;
51006;SDS011;37034;47.886;-3.904;2022-12-18T12:56:24;49.50;;;7.03;;
51006;SDS011;37034;47.886;-3.904;2022-12-18T13:02:14;50.67;;;6.88;;
51006;SDS011;37034;47.886;-3.904;2022-12-18T13:04:49;47.80;;;6.43;;
51006;SDS011;37034;47.886;-3.904;2022-12-18T13:07:40;53.90;;;6.78;;
51006;SDS011;37034;47.886;-3.904;2022-12-18T13:10:30;56.17;;;6.57;;
51006;SDS011;37034;47.886;-3.904;2022-12-18T13:13:01;58.22;;;7.10;;
51006;SDS011;37034;47.886;-3.904;2022-12-18T13:15:42;47.00;;;6.82;;
51006;SDS011;37034;47.886;-3.904;2022-12-18T13:18:23;62.72;;;7.05;;
51006;SDS011;37034;47.886;-3.904;2022-12-18T13:28:21;63.50;;;5.63;;
51006;SDS011;37034;47.886;-3.904;2022-12-18T13:31:07;37.20;;;4.93;;
51006;SDS011;37034;47.886;-3.904;2022-12-18T13:33:39;59.43;;;6.93;;
51006;SDS011;37034;47.886;-3.904;2022-12-18T13:38:47;46.25;;;6.72;;
51006;SDS011;37034;47.886;-3.904;2022-12-18T13:41:33;52.35;;;7.20;;
51006;SDS011;37034;47.886;-3.904;2022-12-18T13:44:11;55.17;;;5.77;;
51006;SDS011;37034;47.886;-3.904;2022-12-18T13:46:58;48.70;;;6.72;;
51006;SDS011;37034;47.886;-3.904;2022-12-18T13:51:57;46.53;;;6.60;;
51006;SDS011;37034;47.886;-3.904;2022-12-18T13:54:30;53.77;;;6.90;;
51006;SDS011;37034;47.886;-3.904;2022-12-18T13:57:04;49.60;;;6.78;;
51006;SDS011;37034;47.886;-3.904;2022-12-18T14:02:13;53.83;;;7.75;;
51006;SDS011;37034;47.886;-3.904;2022-12-18T14:04:40;47.92;;;6.35;;
51006;SDS011;37034;47.886;-3.904;2022-12-18T14:07:07;57.80;;;7.70;;
51006;SDS011;37034;47.886;-3.904;2022-12-18T14:09:42;68.88;;;7.68;;
51006;SDS011;37034;47.886;-3.904;2022-12-18T14:12:27;56.58;;;7.47;;
51006;SDS011;37034;47.886;-3.904;2022-12-18T14:17:55;57.17;;;7.50;;
51006;SDS011;37034;47.886;-3.904;2022-12-18T14:23:23;61.85;;;7.65;;
51006;SDS011;37034;47.886;-3.904;2022-12-18T14:25:54;65.00;;;8.48;;
51006;SDS011;37034;47.886;-3.904;2022-12-18T14:28:20;70.97;;;8.20;;
51006;SDS011;37034;47.886;-3.904;2022-12-18T14:30:49;52.53;;;6.80;;
51006;SDS011;37034;47.886;-3.904;2022-12-18T14:33:16;70.85;;;8.73;;
51006;SDS011;37034;47.886;-3.904;2022-12-18T14:41:01;45.93;;;7.07;;
51006;SDS011;37034;47.886;-3.904;2022-12-18T14:43:35;75.65;;;10.35;;
51006;SDS011;37034;47.886;-3.904;2022-12-18T14:46:03;60.92;;;7.45;;
51006;SDS011;37034;47.886;-3.904;2022-12-18T14:48:37;50.95;;;7.00;;
51006;SDS011;37034;47.886;-3.904;2022-12-18T14:53:49;63.17;;;7.95;;
51006;SDS011;37034;47.886;-3.904;2022-12-18T14:56:29;57.88;;;7.85;;
51006;SDS011;37034;47.886;-3.904;2022-12-18T14:59:02;54.97;;;8.45;;
51006;SDS011;37034;47.886;-3.904;2022-12-18T15:02:08;56.45;;;7.53;;
51006;SDS011;37034;47.886;-3.904;2022-12-18T15:04:43;54.60;;;6.18;;
51006;SDS011;37034;47.886;-3.904;2022-12-18T15:09:35;66.10;;;7.60;;
51006;SDS011;37034;47.886;-3.904;2022-12-18T15:12:03;52.22;;;6.38;;
51006;SDS011;37034;47.886;-3.904;2022-12-18T15:16:56;53.47;;;7.47;;
51006;SDS011;37034;47.886;-3.904;2022-12-18T15:19:25;52.20;;;5.78;;
51006;SDS011;37034;47.886;-3.904;2022-12-18T15:21:59;56.35;;;5.90;;
51006;SDS011;37034;47.886;-3.904;2022-12-18T15:24:27;46.03;;;5.07;;
51006;SDS011;37034;47.886;-3.904;2022-12-18T15:26:56;65.63;;;7.30;;
51006;SDS011;37034;47.886;-3.904;2022-12-18T15:29:22;42.92;;;5.20;;
51006;SDS011;37034;47.886;-3.904;2022-12-18T15:32:00;63.60;;;7.30;;
51006;SDS011;37034;47.886;-3.904;2022-12-18T15:34:27;46.90;;;6.22;;
51006;SDS011;37034;47.886;-3.904;2022-12-18T15:36:53;61.50;;;6.85;;
51006;SDS011;37034;47.886;-3.904;2022-12-18T15:39:19;44.27;;;6.10;;
51006;SDS011;37034;47.886;-3.904;2022-12-18T15:41:45;57.38;;;6.15;;
51006;SDS011;37034;47.886;-3.904;2022-12-18T15:44:30;58.80;;;6.95;;
51006;SDS011;37034;47.886;-3.904;2022-12-18T15:46:56;53.83;;;6.45;;
51006;SDS011;37034;47.886;-3.904;2022-12-18T15:49:23;39.65;;;5.53;;
51006;SDS011;37034;47.886;-3.904;2022-12-18T15:51:51;56.58;;;6.97;;
51006;SDS011;37034;47.886;-3.904;2022-12-18T15:54:19;48.45;;;6.03;;
51006;SDS011;37034;47.886;-3.904;2022-12-18T15:57:04;55.78;;;5.85;;
51006;SDS011;37034;47.886;-3.904;2022-12-18T15:59:48;46.97;;;6.93;;
51006;SDS011;37034;47.886;-3.904;2022-12-18T16:04:41;44.13;;;5.80;;
51006;SDS011;37034;47.886;-3.904;2022-12-18T16:07:07;46.00;;;6.60;;
51006;SDS011;37034;47.886;-3.904;2022-12-18T16:09:33;56.25;;;6.88;;
51006;SDS011;37034;47.886;-3.904;2022-12-18T16:11:59;38.00;;;6.38;;
51006;SDS011;37034;47.886;-3.904;2022-12-18T16:14:26;45.65;;;6.28;;
51006;SDS011;37034;47.886;-3.904;2022-12-18T16:16:55;46.03;;;7.15;;
51006;SDS011;37034;47.886;-3.904;2022-12-18T16:19:27;57.75;;;8.00;;
51006;SDS011;37034;47.886;-3.904;2022-12-18T16:21:54;50.22;;;5.97;;
51006;SDS011;37034;47.886;-3.904;2022-12-18T16:24:22;50.53;;;6.38;;
51006;SDS011;37034;47.886;-3.904;2022-12-18T16:26:50;51.55;;;5.75;;
51006;SDS011;37034;47.886;-3.904;2022-12-18T16:31:43;58.95;;;8.23;;
51006;SDS011;37034;47.886;-3.904;2022-12-18T16:34:19;52.60;;;8.13;;
51006;SDS011;37034;47.886;-3.904;2022-12-18T16:36:53;57.28;;;6.78;;
51006;SDS011;37034;47.886;-3.904;2022-12-18T16:42:51;55.65;;;6.75;;
51006;SDS011;37034;47.886;-3.904;2022-12-18T16:45:17;40.23;;;6.60;;